Time;durP1;ratioP1;P1;durP2;ratioP2;P2;SDS_P1;SDS_P2;PMS_P1;PMS_P2;Temp;Humidity;BMP_temperature;BMP_pressure;BME280_temperature;BME280_humidity;BME280_pressure;Samples;Min_cycle;Max_cycle;Signal;HPM_P1;HPM_P2
2021/12/17 00:00:43;;;;;;;9.02;4.90;;;2.70;99.90;;;;;;4966161;28;20038;-67
2021/12/17 00:03:16;;;;;;;8.77;5.00;;;2.70;99.90;;;;;;4957673;28;20070;-67
2021/12/17 00:05:46;;;;;;;11.57;5.82;;;2.70;99.90;;;;;;4966912;28;20790;-67
2021/12/17 00:08:13;;;;;;;11.00;5.25;;;2.70;99.90;;;;;;4956059;28;20043;-68
2021/12/17 00:10:39;;;;;;;11.48;5.55;;;2.70;99.90;;;;;;4953553;28;20046;-67
2021/12/17 00:13:05;;;;;;;9.73;6.22;;;2.70;99.90;;;;;;4965927;28;20446;-67
2021/12/17 00:15:31;;;;;;;9.57;5.95;;;2.60;99.90;;;;;;4959354;28;20050;-67
2021/12/17 00:18:03;;;;;;;10.98;5.40;;;2.60;99.90;;;;;;4963257;28;20125;-67
2021/12/17 00:51:35;;;;;;;9.95;5.65;;;2.70;99.90;;;;;;4958308;28;20046;-67
2021/12/17 00:53:19;;;;;;;9.85;5.60;;;2.70;99.90;;;;;;4936310;28;20161;-67
2021/12/17 00:55:45;;;;;;;11.93;6.10;;;2.70;99.90;;;;;;4958174;28;20033;-67
2021/12/17 00:58:11;;;;;;;12.68;6.03;;;2.70;99.90;;;;;;4964158;28;20027;-67
2021/12/17 01:00:36;;;;;;;10.00;5.80;;;2.70;99.90;;;;;;4968131;28;20354;-67
2021/12/17 01:03:02;;;;;;;11.55;5.53;;;2.70;99.90;;;;;;4965734;28;20089;-67
2021/12/17 01:05:30;;;;;;;11.52;6.32;;;2.70;99.90;;;;;;4963423;28;20827;-67
2021/12/17 01:07:58;;;;;;;12.98;6.40;;;2.70;99.90;;;;;;4961291;28;20180;-67
2021/12/17 01:10:36;;;;;;;11.40;6.32;;;2.70;99.90;;;;;;4965718;28;20046;-67
2021/12/17 01:13:04;;;;;;;11.75;6.72;;;2.70;99.90;;;;;;4966862;28;21052;-67
2021/12/17 01:15:30;;;;;;;10.23;5.72;;;2.70;99.90;;;;;;4965608;28;20546;-67
2021/12/17 01:18:02;;;;;;;13.57;7.05;;;2.80;99.90;;;;;;4953385;28;20045;-67
2021/12/17 01:20:50;;;;;;;10.50;6.35;;;2.80;99.90;;;;;;4961722;28;20041;-67
2021/12/17 01:35:20;;;;;;;11.18;5.65;;;2.80;99.90;;;;;;4959711;28;20038;-67
2021/12/17 01:37:17;;;;;;;14.23;7.15;;;2.80;99.90;;;;;;4963517;28;20049;-67
2021/12/17 01:42:07;;;;;;;11.55;7.07;;;2.80;99.90;;;;;;4965173;28;20038;-67
2021/12/17 01:44:36;;;;;;;10.23;6.45;;;2.80;99.90;;;;;;4966034;28;20049;-67
2021/12/17 01:47:04;;;;;;;13.75;7.75;;;2.80;99.90;;;;;;4960485;28;20382;-67
2021/12/17 02:00:07;;;;;;;14.35;7.75;;;3.00;99.90;;;;;;4963214;28;20186;-68
2021/12/17 02:02:40;;;;;;;10.95;5.93;;;3.00;99.90;;;;;;4966911;28;20038;-67
2021/12/17 02:05:07;;;;;;;13.00;6.65;;;3.00;99.90;;;;;;4965053;28;20146;-67
2021/12/17 02:07:32;;;;;;;15.35;7.43;;;3.00;99.90;;;;;;4969971;28;20524;-67
2021/12/17 02:28:56;;;;;;;14.68;7.05;;;3.00;99.90;;;;;;4966270;28;20054;-67
2021/12/17 02:31:30;;;;;;;14.73;7.07;;;3.10;99.90;;;;;;4961261;28;20082;-67
2021/12/17 02:34:04;;;;;;;12.07;6.57;;;3.10;99.90;;;;;;4958640;28;20489;-67
2021/12/17 02:36:33;;;;;;;13.88;7.05;;;3.10;99.90;;;;;;4962918;28;20037;-67
2021/12/17 02:39:51;;;;;;;14.75;6.93;;;3.10;99.90;;;;;;4957213;28;20042;-67
2021/12/17 02:47:18;;;;;;;15.93;7.85;;;3.10;99.90;;;;;;4969616;28;21633;-67
2021/12/17 02:49:46;;;;;;;13.73;7.40;;;3.10;99.90;;;;;;4959458;28;20058;-67
2021/12/17 02:52:12;;;;;;;13.55;7.45;;;3.10;99.90;;;;;;4959630;28;20171;-67
2021/12/17 02:54:39;;;;;;;15.38;7.78;;;3.10;99.90;;;;;;4965810;28;20062;-67
2021/12/17 02:57:06;;;;;;;14.85;7.05;;;3.10;99.90;;;;;;4959403;28;20163;-67
2021/12/17 02:59:34;;;;;;;17.92;7.07;;;3.20;99.90;;;;;;4961430;28;20038;-67
2021/12/17 03:02:01;;;;;;;16.03;8.37;;;3.20;99.90;;;;;;4964549;28;20824;-67
2021/12/17 03:04:29;;;;;;;16.33;8.70;;;3.20;99.90;;;;;;4968106;28;20041;-67
2021/12/17 03:06:56;;;;;;;16.67;8.32;;;3.20;99.90;;;;;;4969555;28;20069;-67
2021/12/17 03:09:35;;;;;;;14.50;7.07;;;3.10;99.90;;;;;;4963705;28;20042;-67
2021/12/17 03:12:00;;;;;;;19.23;7.18;;;3.20;99.90;;;;;;4963772;28;20073;-68
2021/12/17 03:14:28;;;;;;;14.35;7.40;;;3.10;99.90;;;;;;4962565;28;20035;-67
2021/12/17 03:17:03;;;;;;;12.73;7.30;;;3.10;99.90;;;;;;4966437;28;20036;-67
2021/12/17 03:24:57;;;;;;;16.90;7.15;;;3.20;99.90;;;;;;4956955;28;20094;-67
2021/12/17 03:27:22;;;;;;;16.50;8.23;;;3.10;99.90;;;;;;4968970;28;20027;-67
2021/12/17 03:29:48;;;;;;;15.40;7.47;;;3.20;99.90;;;;;;4966729;28;20041;-67
2021/12/17 03:32:14;;;;;;;15.88;7.75;;;3.20;99.90;;;;;;4965001;28;20043;-67
2021/12/17 03:34:39;;;;;;;19.65;7.82;;;3.20;99.90;;;;;;4965502;28;20027;-67
2021/12/17 03:37:05;;;;;;;17.83;7.20;;;3.20;99.90;;;;;;4964620;28;20031;-67
2021/12/17 03:39:31;;;;;;;17.70;8.15;;;3.20;99.90;;;;;;4961520;28;20165;-67
2021/12/17 03:41:57;;;;;;;12.65;7.10;;;3.20;99.90;;;;;;4966098;28;20042;-67
2021/12/17 03:44:23;;;;;;;17.27;7.93;;;3.20;99.90;;;;;;4962248;28;20467;-67
2021/12/17 03:46:50;;;;;;;15.98;7.47;;;3.10;99.90;;;;;;4964578;28;20027;-67
2021/12/17 03:49:16;;;;;;;17.13;9.05;;;3.10;99.90;;;;;;4962278;28;20046;-67
2021/12/17 03:51:52;;;;;;;20.88;8.48;;;3.20;99.90;;;;;;4965904;28;20042;-67
2021/12/17 03:54:18;;;;;;;17.02;7.93;;;3.20;99.90;;;;;;4964443;28;20045;-67
2021/12/17 03:56:43;;;;;;;16.10;7.70;;;3.20;99.90;;;;;;4966201;28;20750;-67
2021/12/17 03:59:10;;;;;;;19.65;9.13;;;3.10;99.90;;;;;;4968521;28;20045;-67
2021/12/17 04:01:40;;;;;;;17.70;9.15;;;3.10;99.90;;;;;;4969649;28;20075;-67
2021/12/17 04:04:06;;;;;;;24.25;8.05;;;3.10;99.90;;;;;;4971477;28;20035;-67
2021/12/17 04:06:32;;;;;;;20.85;9.48;;;3.10;99.90;;;;;;4973190;28;20141;-67
2021/12/17 04:08:58;;;;;;;21.05;8.07;;;3.10;99.90;;;;;;4961103;28;20533;-67
2021/12/17 04:11:24;;;;;;;21.13;7.97;;;3.20;99.90;;;;;;4968279;28;20094;-67
2021/12/17 04:13:55;;;;;;;18.67;8.48;;;3.20;99.90;;;;;;4977125;28;20034;-67
2021/12/17 04:16:26;;;;;;;24.10;8.23;;;3.20;99.90;;;;;;4967411;28;20121;-67
2021/12/17 04:18:52;;;;;;;22.05;9.55;;;3.20;99.90;;;;;;4977835;28;20127;-67
2021/12/17 04:21:18;;;;;;;22.55;8.60;;;3.30;99.90;;;;;;4965339;28;20034;-67
2021/12/17 04:23:46;;;;;;;21.30;8.27;;;3.20;99.90;;;;;;4966837;28;20565;-67
2021/12/17 04:26:12;;;;;;;23.73;8.77;;;3.20;99.90;;;;;;4970827;28;20137;-67
2021/12/17 04:28:44;;;;;;;24.38;9.82;;;3.20;99.90;;;;;;4969227;28;20042;-67
2021/12/17 04:31:10;;;;;;;21.40;8.20;;;3.20;99.90;;;;;;4967423;28;21767;-67
2021/12/17 04:33:40;;;;;;;27.35;8.55;;;3.20;99.90;;;;;;4971810;28;20126;-67
2021/12/17 04:36:07;;;;;;;22.15;8.38;;;3.20;99.90;;;;;;4968399;28;20069;-67
2021/12/17 04:38:33;;;;;;;19.80;10.07;;;3.30;99.90;;;;;;4962551;28;20039;-67
2021/12/17 04:41:39;;;;;;;22.60;8.35;;;3.30;99.90;;;;;;4969102;28;20043;-67
2021/12/17 04:57:41;;;;;;;26.20;8.95;;;3.30;99.90;;;;;;4965209;28;20049;-67
2021/12/17 05:00:10;;;;;;;24.85;9.40;;;3.30;99.90;;;;;;4970701;28;20026;-67
2021/12/17 05:02:41;;;;;;;27.38;9.88;;;3.20;99.90;;;;;;4971125;28;20077;-67
2021/12/17 05:05:09;;;;;;;26.80;9.27;;;3.20;99.90;;;;;;4964857;28;20035;-67
2021/12/17 05:07:38;;;;;;;22.02;8.27;;;3.20;99.90;;;;;;4961616;28;20498;-67
2021/12/17 05:20:50;;;;;;;24.92;9.55;;;3.30;99.90;;;;;;4969666;28;20026;-67
2021/12/17 05:23:22;;;;;;;27.80;9.40;;;3.30;99.90;;;;;;4962308;28;20050;-67
2021/12/17 05:25:48;;;;;;;24.40;9.65;;;3.30;99.90;;;;;;4965188;28;20022;-67
2021/12/17 05:28:14;;;;;;;27.10;9.60;;;3.30;99.90;;;;;;4961888;28;20420;-68
2021/12/17 05:30:45;;;;;;;22.38;9.05;;;3.30;99.90;;;;;;4966959;28;20050;-67
2021/12/17 05:33:11;;;;;;;25.55;9.50;;;3.30;99.90;;;;;;4959547;28;20043;-67
2021/12/17 05:35:37;;;;;;;29.48;10.30;;;3.30;99.90;;;;;;4962262;28;20042;-67
2021/12/17 05:38:02;;;;;;;26.30;9.77;;;3.30;99.90;;;;;;4968497;28;20034;-67
2021/12/17 05:40:28;;;;;;;27.05;10.35;;;3.30;99.90;;;;;;4964763;28;20026;-67
2021/12/17 05:42:58;;;;;;;30.65;9.45;;;3.30;99.90;;;;;;4968464;28;20103;-67
2021/12/17 05:48:06;;;;;;;28.88;10.48;;;3.30;99.90;;;;;;4963317;28;20046;-67
2021/12/17 05:50:34;;;;;;;27.60;9.52;;;3.30;99.90;;;;;;4965045;28;20398;-67
2021/12/17 05:53:00;;;;;;;27.13;10.27;;;3.20;99.90;;;;;;4963055;28;20051;-67
2021/12/17 05:55:27;;;;;;;30.75;9.60;;;3.20;99.90;;;;;;4962818;28;20032;-67
2021/12/17 05:57:53;;;;;;;38.97;11.55;;;3.30;99.90;;;;;;4966104;28;20027;-67
2021/12/17 06:00:20;;;;;;;37.67;10.55;;;3.20;99.90;;;;;;4962670;28;20101;-67
2021/12/17 06:02:46;;;;;;;40.25;11.48;;;3.20;99.90;;;;;;4969820;28;20049;-67
2021/12/17 06:05:12;;;;;;;31.60;12.30;;;3.20;99.90;;;;;;4958911;28;20658;-69
2021/12/17 06:07:38;;;;;;;30.42;12.20;;;3.20;99.90;;;;;;4968229;28;20041;-67
2021/12/17 06:10:05;;;;;;;35.70;12.45;;;3.20;99.90;;;;;;4964820;28;20030;-67
2021/12/17 06:12:31;;;;;;;35.70;11.15;;;3.20;99.90;;;;;;4959903;28;20039;-67
2021/12/17 06:14:57;;;;;;;29.38;10.45;;;3.20;99.90;;;;;;4953627;28;20034;-67
2021/12/17 06:17:23;;;;;;;35.13;10.52;;;3.20;99.90;;;;;;4951217;28;20038;-67
2021/12/17 06:19:48;;;;;;;33.20;12.93;;;3.20;99.90;;;;;;4963020;28;20122;-67
2021/12/17 06:22:15;;;;;;;32.45;11.18;;;3.30;99.90;;;;;;4955352;28;20719;-67
2021/12/17 06:24:44;;;;;;;29.08;11.35;;;3.30;99.90;;;;;;4961598;28;20070;-67
2021/12/17 06:27:14;;;;;;;36.05;12.05;;;3.30;99.90;;;;;;4964165;28;20030;-67
2021/12/17 06:29:40;;;;;;;32.28;11.57;;;3.30;99.90;;;;;;4959793;28;20054;-67
2021/12/17 06:32:07;;;;;;;35.28;11.13;;;3.30;99.90;;;;;;4957227;28;20147;-67
2021/12/17 06:34:32;;;;;;;28.05;11.70;;;3.40;99.90;;;;;;4945376;28;20031;-67
2021/12/17 06:36:58;;;;;;;25.20;10.35;;;3.40;99.90;;;;;;4946440;28;20089;-67
2021/12/17 06:39:24;;;;;;;30.50;10.68;;;3.40;99.90;;;;;;4949480;28;21597;-67
2021/12/17 06:41:50;;;;;;;28.63;10.93;;;3.40;99.90;;;;;;4951321;28;20042;-67
2021/12/17 06:44:21;;;;;;;35.08;10.30;;;3.50;99.90;;;;;;4956283;28;20031;-67
2021/12/17 06:49:27;;;;;;;24.52;9.48;;;3.40;99.90;;;;;;4954333;28;20157;-67
2021/12/17 06:55:06;;;;;;;29.13;10.88;;;3.40;99.90;;;;;;4962547;28;20045;-67
2021/12/17 07:10:53;;;;;;;;;;;3.30;99.90;;;;;;4965990;28;20485;-67
2021/12/17 07:22:03;;;;;;;35.80;11.25;;;3.20;99.90;;;;;;4941686;28;20541;-68
2021/12/17 07:40:30;;;;;;;20.10;10.02;;;3.30;99.90;;;;;;4969413;28;20061;-68
2021/12/17 07:42:55;;;;;;;23.05;10.35;;;3.30;99.90;;;;;;4968497;28;20114;-68
2021/12/17 07:45:21;;;;;;;26.63;10.25;;;3.30;99.90;;;;;;4971277;28;20536;-68
2021/12/17 07:47:47;;;;;;;22.38;10.85;;;3.30;99.90;;;;;;4963415;28;20041;-68
2021/12/17 07:50:12;;;;;;;29.15;11.38;;;3.30;99.90;;;;;;4966154;28;20374;-69
2021/12/17 07:52:38;;;;;;;34.83;12.05;;;3.30;99.90;;;;;;4965555;28;20125;-69
2021/12/17 07:55:04;;;;;;;32.35;11.32;;;3.30;99.90;;;;;;4964899;28;20038;-68
2021/12/17 07:57:30;;;;;;;29.38;13.35;;;3.30;99.90;;;;;;4963943;28;20053;-68
2021/12/17 07:59:55;;;;;;;27.25;10.95;;;3.30;99.90;;;;;;4967198;28;20382;-68
2021/12/17 08:02:21;;;;;;;35.00;12.32;;;3.40;99.90;;;;;;4955042;28;20475;-68
2021/12/17 08:04:46;;;;;;;32.92;12.77;;;3.40;99.90;;;;;;4957936;28;20058;-68
2021/12/17 08:07:12;;;;;;;35.03;12.35;;;3.40;99.90;;;;;;4954280;28;20061;-68
2021/12/17 08:09:39;;;;;;;39.83;14.18;;;3.40;99.90;;;;;;4956892;28;20049;-68
2021/12/17 08:12:08;;;;;;;46.17;14.18;;;3.40;99.90;;;;;;4966193;28;20065;-68
2021/12/17 08:14:33;;;;;;;37.92;13.10;;;3.40;99.90;;;;;;4962693;28;20109;-68
2021/12/17 08:17:12;;;;;;;37.20;14.50;;;3.40;99.90;;;;;;4973133;28;20031;-68
2021/12/17 08:24:58;;;;;;;32.22;12.75;;;3.50;99.90;;;;;;4954848;28;20057;-68
2021/12/17 08:27:32;;;;;;;33.38;13.07;;;3.50;99.90;;;;;;4960461;28;20027;-68
2021/12/17 08:30:40;;;;;;;40.13;12.73;;;3.50;99.90;;;;;;4955262;28;20117;-68
2021/12/17 08:32:47;;;;;;;30.35;10.07;;;3.50;99.90;;;;;;4928367;28;20039;-68
2021/12/17 08:35:13;;;;;;;35.88;12.38;;;3.50;99.90;;;;;;4937736;28;20443;-68
2021/12/17 08:37:39;;;;;;;24.27;11.50;;;3.50;99.90;;;;;;4936711;28;20228;-68
2021/12/17 08:40:07;;;;;;;29.83;11.23;;;3.60;99.90;;;;;;4939859;28;20047;-68
2021/12/17 08:42:33;;;;;;;29.17;11.13;;;3.60;99.90;;;;;;4940649;28;20046;-68
2021/12/17 08:45:00;;;;;;;26.15;11.35;;;3.60;99.90;;;;;;4938388;28;20090;-68
2021/12/17 08:47:26;;;;;;;38.22;11.82;;;3.60;99.90;;;;;;4939787;28;20035;-68
2021/12/17 08:49:53;;;;;;;29.13;11.18;;;3.70;99.90;;;;;;4939118;28;20733;-68
2021/12/17 08:52:19;;;;;;;31.40;10.90;;;3.70;99.90;;;;;;4938023;28;22174;-68
2021/12/17 08:54:44;;;;;;;20.08;8.60;;;3.70;99.90;;;;;;4941041;28;20050;-68
2021/12/17 08:57:10;;;;;;;13.65;6.43;;;3.70;99.90;;;;;;4940439;28;20119;-68
2021/12/17 08:59:36;;;;;;;14.48;8.98;;;3.80;99.90;;;;;;4938802;28;20039;-68
2021/12/17 09:02:03;;;;;;;17.27;7.80;;;3.80;99.90;;;;;;4954619;28;20057;-68
2021/12/17 09:04:29;;;;;;;12.15;5.95;;;3.90;99.90;;;;;;4959437;28;20443;-68
2021/12/17 09:06:56;;;;;;;6.20;4.28;;;3.90;99.90;;;;;;4952736;28;20127;-68
2021/12/17 09:09:23;;;;;;;12.57;6.13;;;3.90;99.90;;;;;;4960122;28;20478;-68
2021/12/17 09:11:50;;;;;;;8.05;4.65;;;4.00;99.90;;;;;;4956035;28;20117;-68
2021/12/17 09:14:19;;;;;;;6.63;4.05;;;4.00;99.90;;;;;;4957081;28;20462;-68
2021/12/17 09:16:46;;;;;;;7.38;4.63;;;4.00;99.90;;;;;;4959105;28;20038;-68
2021/12/17 09:19:12;;;;;;;8.57;4.68;;;4.00;99.90;;;;;;4958795;28;20118;-68
2021/12/17 09:21:38;;;;;;;9.63;4.97;;;4.00;99.90;;;;;;4953920;28;20037;-68
2021/12/17 09:24:04;;;;;;;8.80;4.72;;;4.00;99.90;;;;;;4956420;28;20027;-68
2021/12/17 09:26:32;;;;;;;9.85;5.13;;;4.00;99.90;;;;;;4954606;28;20071;-68
2021/12/17 09:28:59;;;;;;;7.05;4.70;;;4.00;99.90;;;;;;4955870;28;20041;-68
2021/12/17 09:31:25;;;;;;;7.05;4.55;;;4.00;99.90;;;;;;4957997;28;20075;-68
2021/12/17 09:33:51;;;;;;;6.85;4.30;;;4.00;99.90;;;;;;4954633;28;20042;-68
2021/12/17 09:36:18;;;;;;;7.47;5.28;;;4.00;99.90;;;;;;4956359;28;20034;-68
2021/12/17 09:38:49;;;;;;;12.60;5.53;;;4.10;99.90;;;;;;4956364;28;20097;-68
2021/12/17 09:41:16;;;;;;;7.93;4.60;;;4.10;99.90;;;;;;4956547;28;20426;-68
2021/12/17 09:43:42;;;;;;;9.68;5.60;;;4.10;99.90;;;;;;4954763;28;21670;-69
2021/12/17 09:46:08;;;;;;;6.53;5.20;;;4.10;99.90;;;;;;4956826;28;20045;-68
2021/12/17 09:48:35;;;;;;;11.60;5.38;;;4.10;99.90;;;;;;4957172;28;20043;-68
2021/12/17 09:51:04;;;;;;;8.10;5.38;;;4.10;99.90;;;;;;4956283;28;20834;-68
2021/12/17 09:53:30;;;;;;;7.70;5.25;;;4.20;99.90;;;;;;4956849;28;20062;-68
2021/12/17 09:55:56;;;;;;;6.55;4.57;;;4.20;99.90;;;;;;4959301;28;20935;-68
2021/12/17 09:58:22;;;;;;;5.95;4.80;;;4.20;99.90;;;;;;4954641;28;20034;-68
2021/12/17 10:00:48;;;;;;;6.60;5.15;;;4.10;99.90;;;;;;4955441;28;20039;-68
2021/12/17 10:03:13;;;;;;;9.13;6.15;;;4.10;99.90;;;;;;4955443;28;20035;-69
2021/12/17 10:05:40;;;;;;;9.30;5.13;;;4.10;99.90;;;;;;4953020;28;20074;-68
2021/12/17 10:08:26;;;;;;;7.95;5.95;;;4.10;99.90;;;;;;4955722;28;20050;-68
2021/12/17 10:10:58;;;;;;;8.95;5.90;;;4.10;99.90;;;;;;4953941;28;21726;-68
2021/12/17 10:13:30;;;;;;;8.82;5.55;;;4.10;99.90;;;;;;4954556;28;20422;-68
2021/12/17 10:16:02;;;;;;;8.73;5.28;;;4.00;99.90;;;;;;4960404;28;20027;-68
2021/12/17 10:18:35;;;;;;;8.35;5.45;;;4.00;99.90;;;;;;4953869;28;20050;-68
2021/12/17 10:21:06;;;;;;;9.57;6.45;;;3.90;99.90;;;;;;4956721;28;20097;-68
2021/12/17 10:23:33;;;;;;;7.93;5.22;;;4.00;99.90;;;;;;4953501;28;20035;-68
2021/12/17 10:26:00;;;;;;;6.75;5.20;;;4.00;99.90;;;;;;4955215;28;20046;-68
2021/12/17 10:28:26;;;;;;;10.52;6.10;;;4.00;99.90;;;;;;4956081;28;20046;-68
2021/12/17 10:30:53;;;;;;;8.40;4.90;;;4.10;99.90;;;;;;4945943;28;20045;-68
2021/12/17 10:33:23;;;;;;;8.38;5.22;;;4.10;99.90;;;;;;4936059;28;20035;-68
2021/12/17 10:35:50;;;;;;;9.43;5.60;;;4.10;99.90;;;;;;4932630;28;20535;-68
2021/12/17 10:38:23;;;;;;;10.23;6.00;;;4.20;99.90;;;;;;4935451;28;20039;-68
2021/12/17 10:41:07;;;;;;;10.18;6.25;;;4.30;99.90;;;;;;4939667;28;20031;-68
2021/12/17 10:43:38;;;;;;;7.75;5.15;;;4.30;99.90;;;;;;4935430;28;21018;-68
2021/12/17 10:46:32;;;;;;;8.57;5.93;;;4.30;99.90;;;;;;4936995;28;20027;-68
2021/12/17 10:54:13;;;;;;;8.80;5.67;;;4.40;99.90;;;;;;4940102;28;20163;-68
2021/12/17 10:56:42;;;;;;;7.28;5.57;;;4.50;99.90;;;;;;4937556;28;20146;-68
2021/12/17 10:59:13;;;;;;;14.60;6.57;;;4.40;99.90;;;;;;4937020;28;20062;-68
2021/12/17 11:01:55;;;;;;;7.80;5.25;;;4.50;99.90;;;;;;4944861;28;20057;-68
2021/12/17 11:04:30;;;;;;;8.95;5.90;;;4.50;99.90;;;;;;4955932;28;20045;-68
2021/12/17 11:06:59;;;;;;;10.43;6.50;;;4.50;99.90;;;;;;4956021;28;20842;-68
2021/12/17 11:09:52;;;;;;;12.43;6.43;;;4.50;99.90;;;;;;4956789;28;20135;-68
2021/12/17 11:12:28;;;;;;;7.75;5.55;;;4.60;99.90;;;;;;4947066;28;20197;-68
2021/12/17 11:15:04;;;;;;;11.10;5.50;;;4.60;99.90;;;;;;4954380;28;20078;-68
2021/12/17 11:17:29;;;;;;;11.48;7.03;;;4.70;99.90;;;;;;4952502;28;20494;-68
2021/12/17 11:19:57;;;;;;;16.05;7.25;;;4.70;99.90;;;;;;4959959;28;20035;-68
2021/12/17 11:22:24;;;;;;;16.15;8.77;;;4.60;99.90;;;;;;4953262;28;20039;-68
2021/12/17 11:24:50;;;;;;;17.45;8.15;;;4.50;99.90;;;;;;4956705;28;20114;-68
2021/12/17 11:27:15;;;;;;;16.48;8.73;;;4.40;99.90;;;;;;4953951;28;20031;-68
2021/12/17 11:29:42;;;;;;;12.15;8.15;;;4.40;99.90;;;;;;4955424;28;20746;-68
2021/12/17 11:32:08;;;;;;;17.88;9.05;;;4.30;99.90;;;;;;4941182;28;20138;-68
2021/12/17 11:34:34;;;;;;;17.13;8.80;;;4.20;99.90;;;;;;4935185;28;20070;-68
2021/12/17 11:37:03;;;;;;;17.83;9.25;;;4.10;99.90;;;;;;4939852;28;20481;-68
2021/12/17 11:39:33;;;;;;;17.83;10.43;;;4.10;99.90;;;;;;4938501;28;20584;-68
2021/12/17 11:42:48;;;;;;;18.20;9.32;;;4.10;99.90;;;;;;4935154;28;20040;-68
2021/12/17 11:45:26;;;;;;;17.45;8.98;;;4.10;99.90;;;;;;4937274;28;20039;-68
2021/12/17 11:48:16;;;;;;;15.40;8.75;;;4.20;99.90;;;;;;4935171;28;20129;-68
2021/12/17 11:50:42;;;;;;;17.63;9.65;;;4.20;99.90;;;;;;4934465;28;20035;-68
2021/12/17 11:53:24;;;;;;;17.50;9.80;;;4.40;99.90;;;;;;4937593;28;20059;-68
2021/12/17 11:55:59;;;;;;;21.52;10.95;;;4.40;99.90;;;;;;4936049;28;20035;-68
2021/12/17 11:58:49;;;;;;;20.88;10.27;;;4.60;99.90;;;;;;4936869;28;20038;-69
2021/12/17 12:01:59;;;;;;;20.35;9.77;;;4.60;99.90;;;;;;4935241;28;20054;-68
2021/12/17 12:04:54;;;;;;;19.63;9.90;;;4.50;99.90;;;;;;4935358;28;20457;-68
2021/12/17 12:07:26;;;;;;;19.77;10.02;;;4.50;99.90;;;;;;4936304;28;20051;-68
2021/12/17 12:09:57;;;;;;;15.50;9.10;;;4.50;99.90;;;;;;4937258;28;20051;-68
2021/12/17 12:12:50;;;;;;;18.30;9.32;;;4.40;99.90;;;;;;4937328;28;20102;-68
2021/12/17 12:18:11;;;;;;;18.15;9.02;;;4.40;99.90;;;;;;4940007;28;20057;-68
2021/12/17 12:20:50;;;;;;;18.25;9.43;;;4.40;99.90;;;;;;4936282;28;20046;-68
2021/12/17 12:23:29;;;;;;;15.95;9.00;;;4.30;99.90;;;;;;4938453;28;20118;-68
2021/12/17 12:26:04;;;;;;;19.63;9.90;;;4.30;99.90;;;;;;4935496;28;20043;-68
2021/12/17 12:28:45;;;;;;;14.13;8.68;;;4.30;99.90;;;;;;4942778;28;20042;-68
2021/12/17 12:31:20;;;;;;;17.38;9.32;;;4.20;99.90;;;;;;4948150;28;20039;-68
2021/12/17 12:34:04;;;;;;;14.40;7.88;;;4.20;99.90;;;;;;4953174;28;20157;-68
2021/12/17 12:36:54;;;;;;;21.27;10.05;;;4.20;99.90;;;;;;4955227;28;20030;-68
2021/12/17 12:39:37;;;;;;;14.85;8.55;;;4.10;99.90;;;;;;4955587;28;20153;-68
2021/12/17 12:42:35;;;;;;;14.48;8.13;;;4.10;99.90;;;;;;4959984;28;20026;-68
2021/12/17 12:45:05;;;;;;;18.38;8.65;;;4.10;99.90;;;;;;4955862;28;20030;-68
2021/12/17 12:47:42;;;;;;;14.32;7.57;;;4.00;99.90;;;;;;4956492;28;20043;-68
2021/12/17 12:50:13;;;;;;;14.57;8.07;;;4.00;99.90;;;;;;4959640;28;20070;-68
2021/12/17 12:52:46;;;;;;;17.52;8.85;;;4.00;99.90;;;;;;4959443;28;20054;-68
2021/12/17 12:55:18;;;;;;;18.20;8.45;;;4.10;99.90;;;;;;4966233;28;20042;-68
2021/12/17 12:57:46;;;;;;;20.45;9.38;;;4.00;99.90;;;;;;4957714;28;21582;-68
2021/12/17 13:00:22;;;;;;;16.65;9.98;;;4.00;99.90;;;;;;4956940;28;20573;-69
2021/12/17 13:02:52;;;;;;;19.42;8.68;;;3.90;99.90;;;;;;4957140;28;20050;-68
2021/12/17 13:05:18;;;;;;;19.10;9.32;;;4.00;99.90;;;;;;4950756;28;20050;-69
2021/12/17 13:07:50;;;;;;;17.90;9.82;;;4.10;99.90;;;;;;4954876;28;20114;-68
2021/12/17 13:10:24;;;;;;;19.17;9.32;;;4.10;99.90;;;;;;4957320;28;20035;-69
2021/12/17 13:13:15;;;;;;;17.15;9.50;;;4.10;99.90;;;;;;4955038;28;20035;-68
2021/12/17 13:15:50;;;;;;;18.20;8.68;;;4.00;99.90;;;;;;4952895;28;20454;-68
2021/12/17 13:21:05;;;;;;;21.00;10.18;;;4.00;99.90;;;;;;4955042;28;20041;-69
2021/12/17 13:23:38;;;;;;;23.10;10.50;;;4.00;99.90;;;;;;4958827;28;20031;-69
2021/12/17 13:26:10;;;;;;;22.23;10.50;;;4.00;99.90;;;;;;4955826;28;20074;-68
2021/12/17 13:28:54;;;;;;;18.00;8.70;;;4.00;99.90;;;;;;4958143;28;20070;-69
2021/12/17 13:31:46;;;;;;;15.95;8.38;;;4.00;99.90;;;;;;4950124;28;20047;-69
2021/12/17 13:34:11;;;;;;;15.50;7.60;;;4.00;99.90;;;;;;4938073;28;20038;-69
2021/12/17 13:36:42;;;;;;;14.38;7.97;;;4.00;99.90;;;;;;4937604;28;20039;-69
2021/12/17 13:39:11;;;;;;;19.38;8.93;;;4.00;99.90;;;;;;4940901;28;20118;-69
2021/12/17 13:41:42;;;;;;;19.40;9.23;;;4.10;99.90;;;;;;4937789;28;20130;-69
2021/12/17 13:44:26;;;;;;;19.85;9.25;;;4.10;99.90;;;;;;4941159;28;20036;-69
2021/12/17 13:46:53;;;;;;;15.52;7.85;;;4.10;99.90;;;;;;4937011;28;20038;-69
2021/12/17 13:49:19;;;;;;;16.90;8.25;;;4.00;99.90;;;;;;4937634;28;20054;-69
2021/12/17 13:51:45;;;;;;;26.50;9.68;;;4.00;99.90;;;;;;4940628;28;20429;-69
2021/12/17 13:54:11;;;;;;;15.70;7.32;;;4.00;99.90;;;;;;4940374;28;20035;-69
2021/12/17 13:56:37;;;;;;;22.13;8.93;;;4.00;99.90;;;;;;4939797;28;20058;-69
2021/12/17 13:59:03;;;;;;;14.45;8.02;;;3.90;99.90;;;;;;4937914;28;20043;-69
2021/12/17 14:01:29;;;;;;;14.95;7.65;;;3.90;99.90;;;;;;4936647;28;20082;-69
2021/12/17 14:03:55;;;;;;;14.02;7.70;;;3.90;99.90;;;;;;4940045;28;20038;-69
2021/12/17 14:06:28;;;;;;;16.40;7.45;;;3.80;99.90;;;;;;4940563;28;20550;-69
2021/12/17 14:08:53;;;;;;;15.32;7.30;;;3.80;99.90;;;;;;4952476;28;20034;-69
2021/12/17 14:11:30;;;;;;;18.05;7.45;;;3.80;99.90;;;;;;4952147;28;20135;-69
2021/12/17 14:13:56;;;;;;;19.27;9.73;;;3.70;99.90;;;;;;4949091;28;20055;-69
2021/12/17 14:16:33;;;;;;;18.30;9.07;;;3.70;99.90;;;;;;4945489;28;20195;-69
2021/12/17 14:19:00;;;;;;;18.40;8.25;;;3.70;99.90;;;;;;4952635;28;20035;-69
2021/12/17 14:21:31;;;;;;;20.02;8.45;;;3.70;99.90;;;;;;4944679;28;20039;-69
2021/12/17 14:23:58;;;;;;;19.90;9.35;;;3.70;99.90;;;;;;4956141;28;20066;-69
2021/12/17 14:26:31;;;;;;;20.15;9.32;;;3.70;99.90;;;;;;4951504;28;20034;-69
2021/12/17 14:29:11;;;;;;;19.25;8.95;;;3.70;99.90;;;;;;4954688;28;20082;-68
2021/12/17 14:31:37;;;;;;;19.33;9.55;;;3.70;99.90;;;;;;4948207;28;20038;-69
2021/12/17 14:34:03;;;;;;;16.88;8.05;;;3.70;99.90;;;;;;4955164;28;20035;-69
2021/12/17 14:36:36;;;;;;;22.40;9.07;;;3.80;99.90;;;;;;4928402;28;20027;-69
2021/12/17 14:39:13;;;;;;;24.95;9.40;;;3.80;99.90;;;;;;4944197;28;20044;-69
2021/12/17 14:41:56;;;;;;;17.98;8.73;;;3.80;99.90;;;;;;4943479;28;20040;-69
2021/12/17 14:46:58;;;;;;;19.92;9.50;;;3.90;99.90;;;;;;4943086;28;20024;-69
2021/12/17 15:03:22;;;;;;;20.05;8.82;;;3.90;99.90;;;;;;4922771;28;20051;-68
2021/12/17 15:05:48;;;;;;;20.95;7.95;;;4.00;99.90;;;;;;4950749;28;20074;-69
2021/12/17 15:08:14;;;;;;;19.05;9.43;;;3.90;99.90;;;;;;4956344;28;20033;-68
2021/12/17 15:10:40;;;;;;;22.90;10.55;;;3.90;99.90;;;;;;4946153;28;20397;-69
2021/12/17 15:13:06;;;;;;;21.63;9.07;;;3.90;99.90;;;;;;4947301;28;20535;-68
2021/12/17 15:15:38;;;;;;;24.55;12.00;;;3.90;99.90;;;;;;4941144;28;20534;-69
2021/12/17 15:18:05;;;;;;;17.23;8.85;;;3.90;99.90;;;;;;4953468;28;20046;-69
2021/12/17 15:20:33;;;;;;;19.90;8.65;;;4.00;99.90;;;;;;4949469;28;20146;-69
2021/12/17 15:23:00;;;;;;;24.15;9.90;;;3.90;99.90;;;;;;4952276;28;20123;-69
2021/12/17 15:25:27;;;;;;;21.10;9.07;;;3.90;99.90;;;;;;4948849;28;20102;-68
2021/12/17 15:27:53;;;;;;;21.55;9.77;;;3.90;99.90;;;;;;4951370;28;20101;-68
2021/12/17 15:30:28;;;;;;;23.88;10.45;;;3.90;99.90;;;;;;4951168;28;20047;-68
2021/12/17 15:32:54;;;;;;;19.55;9.18;;;3.90;99.90;;;;;;4969195;28;20026;-68
2021/12/17 15:35:23;;;;;;;21.55;9.20;;;3.90;99.90;;;;;;4969975;28;20480;-68
2021/12/17 15:37:50;;;;;;;;;;;3.90;99.90;;;;;;4970758;28;20038;-69
2021/12/17 15:40:16;;;;;;;21.73;9.75;;;3.90;99.90;;;;;;4969252;28;19921;-68
2021/12/17 15:42:42;;;;;;;22.77;9.70;;;3.90;99.90;;;;;;4968003;28;20122;-68
2021/12/17 15:45:09;;;;;;;23.92;11.40;;;3.90;99.90;;;;;;4969943;28;20035;-68
2021/12/17 15:47:35;;;;;;;24.23;10.50;;;3.90;99.90;;;;;;4968320;28;20023;-68
2021/12/17 15:50:03;;;;;;;22.27;8.80;;;3.90;99.90;;;;;;4970115;28;20066;-68
2021/12/17 15:52:29;;;;;;;21.38;9.88;;;3.90;99.90;;;;;;4966765;28;20039;-68
2021/12/17 15:54:55;;;;;;;21.58;8.65;;;3.90;99.90;;;;;;4970069;28;20042;-68
2021/12/17 15:57:20;;;;;;;18.10;8.43;;;4.00;99.90;;;;;;4966936;28;20031;-69
2021/12/17 15:59:48;;;;;;;18.13;9.45;;;4.00;99.90;;;;;;4965136;28;20079;-68
2021/12/17 16:02:15;;;;;;;20.08;8.90;;;4.00;99.90;;;;;;4943465;28;20035;-68
2021/12/17 16:04:44;;;;;;;14.95;7.20;;;3.90;99.90;;;;;;4964289;28;20084;-68
2021/12/17 16:07:10;;;;;;;20.55;9.63;;;3.90;99.90;;;;;;4950614;28;20118;-68